Time;durP1;ratioP1;P1;durP2;ratioP2;P2;SDS_P1;SDS_P2;PMS_P1;PMS_P2;Temp;Humidity;BMP_temperature;BMP_pressure;BME280_temperature;BME280_humidity;BME280_pressure;Samples;Min_cycle;Max_cycle;Signal;HPM_P1;HPM_P2
2023/04/26 00:01:29;;;;;;;9.90;9.00;;;;;;;11.35;69.00;93985.88;5044827;28;20225;-70
2023/04/26 00:03:55;;;;;;;9.80;8.90;;;;;;;11.27;68.93;93978.88;5031750;28;20224;-71
2023/04/26 00:06:20;;;;;;;10.77;9.70;;;;;;;11.20;69.41;93983.22;5028015;28;20568;-70
2023/04/26 00:08:46;;;;;;;8.70;7.97;;;;;;;11.19;69.52;93978.97;5028986;28;20218;-71
2023/04/26 00:11:11;;;;;;;10.67;9.67;;;;;;;11.12;69.62;93967.53;5027139;28;20226;-70
2023/04/26 00:13:37;;;;;;;9.63;8.80;;;;;;;11.10;69.37;93959.03;5024927;28;20244;-68
2023/04/26 00:16:03;;;;;;;10.50;9.45;;;;;;;11.15;69.29;93964.56;5042827;28;20348;-71
2023/04/26 00:18:30;;;;;;;11.10;10.10;;;;;;;11.19;69.29;93947.41;5023608;28;20182;-68
2023/04/26 00:20:56;;;;;;;11.07;9.97;;;;;;;11.16;69.32;93958.28;5038676;28;20221;-69
2023/04/26 00:23:21;;;;;;;11.70;10.63;;;;;;;11.09;69.33;93958.19;5034316;28;20221;-69
2023/04/26 00:25:47;;;;;;;11.25;10.25;;;;;;;11.07;69.75;93949.69;5022062;28;20236;-71
2023/04/26 00:28:12;;;;;;;11.53;10.43;;;;;;;11.08;69.68;93956.56;5024765;28;20225;-71
2023/04/26 00:30:41;;;;;;;11.30;10.15;;;;;;;11.05;69.79;93954.31;5031488;28;20186;-70
2023/04/26 00:33:06;;;;;;;10.82;9.73;;;;;;;11.06;69.50;93948.03;5028043;28;20182;-69
2023/04/26 00:35:32;;;;;;;10.47;9.50;;;;;;;10.99;69.72;93952.41;5032935;28;20308;-69
2023/04/26 00:37:57;;;;;;;10.80;9.80;;;;;;;10.96;69.38;93936.94;5020858;28;20217;-68
2023/04/26 00:40:23;;;;;;;10.93;9.83;;;;;;;10.96;68.98;93945.69;5037124;28;20224;-69
2023/04/26 00:42:48;;;;;;;12.10;10.90;;;;;;;10.92;69.03;93936.50;5026866;28;20182;-69
2023/04/26 00:45:13;;;;;;;10.87;9.97;;;;;;;10.92;68.32;93936.50;5019502;28;20228;-70
2023/04/26 00:47:39;;;;;;;11.50;10.50;;;;;;;10.86;69.23;93941.69;5021581;28;20234;-69
2023/04/26 00:50:06;;;;;;;12.40;11.20;;;;;;;10.86;68.96;93936.44;5032976;28;20218;-69
2023/04/26 00:52:32;;;;;;;12.57;11.37;;;;;;;10.82;69.12;93936.78;5029320;28;20214;-69
2023/04/26 00:54:58;;;;;;;12.83;11.53;;;;;;;10.79;69.21;93949.47;5025742;28;20348;-68
2023/04/26 00:57:25;;;;;;;12.77;11.40;;;;;;;10.79;69.17;93949.47;5035927;28;20226;-71
2023/04/26 00:59:50;;;;;;;12.67;11.50;;;;;;;10.53;69.85;93941.97;5031980;28;20222;-70
2023/04/26 01:02:16;;;;;;;14.00;12.43;;;;;;;10.70;69.39;93942.66;5028716;28;20236;-70
2023/04/26 01:04:44;;;;;;;12.37;11.20;;;;;;;10.68;69.68;93948.06;5025308;28;20241;-71
2023/04/26 01:07:10;;;;;;;12.43;11.30;;;;;;;10.67;69.48;93951.72;5025039;28;20229;-69
2023/04/26 01:09:36;;;;;;;13.20;11.90;;;;;;;10.73;69.28;93960.69;5030423;28;20183;-71
2023/04/26 01:12:02;;;;;;;13.35;12.15;;;;;;;10.67;69.76;93959.59;5025650;28;20226;-70
2023/04/26 01:14:28;;;;;;;12.83;11.73;;;;;;;10.51;69.95;93955.31;5013104;28;20252;-68
2023/04/26 01:16:55;;;;;;;13.17;11.87;;;;;;;10.59;69.49;93957.03;5025275;28;20256;-70
2023/04/26 01:19:20;;;;;;;12.47;11.37;;;;;;;10.57;69.79;93965.09;5029995;28;20221;-71
2023/04/26 01:21:46;;;;;;;13.13;11.83;;;;;;;10.59;69.74;93951.78;5036606;28;20190;-70
2023/04/26 01:24:12;;;;;;;13.40;12.20;;;;;;;10.62;69.38;93940.91;5042413;28;20183;-71
2023/04/26 01:26:44;;;;;;;12.60;11.40;;;;;;;10.59;69.76;93934.19;5032156;28;20251;-69
2023/04/26 01:29:20;;;;;;;12.80;11.70;;;;;;;10.53;69.54;93937.56;5020407;28;20302;-71
2023/04/26 01:31:46;;;;;;;12.52;11.23;;;;;;;10.52;69.13;93932.47;5022653;28;20244;-68
2023/04/26 01:34:12;;;;;;;11.30;10.30;;;;;;;10.48;69.11;93933.81;5025480;28;20226;-70
2023/04/26 01:36:37;;;;;;;12.27;11.18;;;;;;;10.27;70.13;93939.72;5027933;28;20193;-69
2023/04/26 01:39:03;;;;;;;12.07;10.88;;;;;;;10.32;69.96;93938.22;5031849;28;20188;-70
2023/04/26 01:41:29;;;;;;;12.57;11.03;;;;;;;10.38;69.59;93939.31;5033811;28;20221;-72
2023/04/26 01:43:54;;;;;;;12.07;10.73;;;;;;;10.12;69.67;93950.97;5030712;28;20230;-68
2023/04/26 01:46:20;;;;;;;12.33;11.17;;;;;;;10.03;69.99;93951.22;5019087;28;20313;-71
2023/04/26 01:48:46;;;;;;;12.97;11.57;;;;;;;9.77;70.93;93951.53;5028156;28;20181;-68
2023/04/26 01:51:11;;;;;;;12.50;11.40;;;;;;;9.76;71.33;93963.03;5027998;28;20192;-70
2023/04/26 01:53:37;;;;;;;11.87;10.57;;;;;;;9.92;70.63;93953.22;5010067;28;20217;-71
2023/04/26 01:56:03;;;;;;;11.10;10.20;;;;;;;9.94;69.61;93950.41;5027700;28;20221;-70
2023/04/26 01:58:29;;;;;;;11.27;10.17;;;;;;;9.82;69.52;93957.88;5026956;28;20247;-68
2023/04/26 02:00:56;;;;;;;11.30;10.33;;;;;;;9.89;69.06;93942.25;5034423;28;20803;-69
2023/04/26 02:03:21;;;;;;;11.37;9.50;;;;;;;9.71;68.92;93932.84;5027115;28;20189;-69
2023/04/26 02:05:47;;;;;;;10.60;9.70;;;;;;;9.85;68.52;93935.72;5028849;28;20869;-70
2023/04/26 02:08:12;;;;;;;10.80;9.80;;;;;;;10.06;68.10;93935.91;5035387;28;20345;-68
2023/04/26 02:10:38;;;;;;;10.60;9.70;;;;;;;10.04;68.66;93932.63;5032934;28;20620;-68
2023/04/26 02:13:04;;;;;;;10.83;9.73;;;;;;;10.07;69.20;93929.66;5033978;28;20226;-69
2023/04/26 02:15:29;;;;;;;11.57;10.57;;;;;;;10.11;68.88;93938.00;5036054;28;20192;-68
2023/04/26 02:17:55;;;;;;;11.80;10.70;;;;;;;10.07;68.85;93934.09;5034757;28;20300;-69
2023/04/26 02:20:20;;;;;;;10.53;9.50;;;;;;;10.01;69.43;93927.72;5035347;28;21081;-69
2023/04/26 02:22:46;;;;;;;11.60;10.07;;;;;;;10.02;69.31;93921.47;5030146;28;20244;-69
2023/04/26 02:25:11;;;;;;;11.80;10.57;;;;;;;10.10;68.93;93925.84;5027683;28;20313;-68
2023/04/26 02:27:37;;;;;;;12.80;11.47;;;;;;;10.08;69.20;93928.69;5032235;28;20264;-68
2023/04/26 02:30:03;;;;;;;13.37;11.00;;;;;;;10.13;69.27;93941.25;5034602;28;20220;-68
2023/04/26 02:32:29;;;;;;;13.40;12.10;;;;;;;10.05;69.31;93929.03;5035943;28;20567;-68
2023/04/26 02:34:54;;;;;;;12.87;11.13;;;;;;;10.14;69.26;93940.28;5030017;28;20217;-70
2023/04/26 02:37:21;;;;;;;11.80;10.70;;;;;;;10.10;69.44;93939.84;5033696;28;20221;-69
2023/04/26 02:39:50;;;;;;;10.23;9.13;;;;;;;10.05;69.00;93939.53;5034432;28;20248;-70
2023/04/26 02:42:15;;;;;;;9.90;8.63;;;;;;;10.03;68.12;93931.00;5039800;28;20450;-69
2023/04/26 02:44:41;;;;;;;10.07;8.33;;;;;;;9.92;67.94;93928.78;5030675;28;20220;-68
2023/04/26 02:47:07;;;;;;;8.77;8.07;;;;;;;10.03;67.14;93935.44;5035378;28;20259;-69
2023/04/26 02:49:32;;;;;;;9.07;8.20;;;;;;;10.03;66.28;93935.44;5033701;28;20313;-70
2023/04/26 02:51:58;;;;;;;8.23;7.53;;;;;;;9.98;66.14;93917.59;5035444;28;20221;-68
2023/04/26 02:54:23;;;;;;;8.77;7.97;;;;;;;10.01;66.23;93913.78;5030444;28;20621;-68
2023/04/26 02:56:49;;;;;;;8.13;7.50;;;;;;;10.13;65.97;93915.00;5032462;28;20248;-70
2023/04/26 02:59:14;;;;;;;9.17;8.37;;;;;;;10.01;67.21;93911.97;5030503;28;20225;-69
2023/04/26 03:01:40;;;;;;;9.67;8.80;;;;;;;10.00;68.03;93912.97;5030608;28;20226;-67
2023/04/26 03:04:05;;;;;;;9.30;8.50;;;;;;;10.08;67.84;93910.28;5030094;28;20220;-66
2023/04/26 03:06:32;;;;;;;10.03;9.10;;;;;;;10.13;67.88;93910.59;5033019;28;20225;-67
2023/04/26 03:08:57;;;;;;;10.70;9.27;;;;;;;10.18;67.98;93912.66;5031890;28;20241;-68
2023/04/26 03:11:23;;;;;;;9.33;8.50;;;;;;;10.21;67.66;93917.59;5024693;28;20639;-67
2023/04/26 03:13:48;;;;;;;11.83;8.43;;;;;;;10.24;67.05;93913.78;5011847;28;20308;-69
2023/04/26 03:16:15;;;;;;;14.13;8.13;;;;;;;10.18;66.21;93923.16;5026088;28;20236;-68
2023/04/26 03:18:40;;;;;;;8.93;8.13;;;;;;;10.26;65.64;93909.16;5022460;28;20194;-72
2023/04/26 03:21:05;;;;;;;8.80;8.10;;;;;;;10.31;66.00;93907.66;5029215;28;20177;-71
2023/04/26 03:23:31;;;;;;;10.23;9.17;;;;;;;10.30;67.02;93910.47;5027534;28;20228;-69
2023/04/26 03:25:57;;;;;;;10.87;9.87;;;;;;;10.30;67.76;93911.28;5031713;28;20233;-68
2023/04/26 03:28:22;;;;;;;11.73;9.60;;;;;;;10.14;68.49;93909.56;5032614;28;20217;-71
2023/04/26 03:30:49;;;;;;;11.90;10.67;;;;;;;10.13;69.11;93913.22;5026941;28;20185;-71
2023/04/26 03:33:15;;;;;;;12.23;11.13;;;;;;;9.79;70.15;93915.41;5029818;28;20245;-71
2023/04/26 03:35:42;;;;;;;13.30;12.17;;;;;;;9.85;70.44;93912.91;5031998;28;20242;-68
2023/04/26 03:38:07;;;;;;;13.03;11.93;;;;;;;9.95;70.12;93917.94;5022379;28;20226;-71
2023/04/26 03:40:32;;;;;;;13.80;12.40;;;;;;;10.02;69.89;93924.09;5020044;28;20276;-70
2023/04/26 03:42:58;;;;;;;12.27;11.00;;;;;;;10.08;69.86;93922.63;5030490;28;20224;-70
2023/04/26 03:45:25;;;;;;;11.67;10.67;;;;;;;10.07;69.68;93921.78;5022222;28;20231;-69
2023/04/26 03:47:51;;;;;;;11.17;10.07;;;;;;;10.15;69.18;93918.28;5029401;28;20248;-69
2023/04/26 03:50:16;;;;;;;14.90;10.53;;;;;;;10.26;68.50;93925.72;5033546;28;20213;-70
2023/04/26 03:52:44;;;;;;;9.63;8.73;;;;;;;10.24;67.42;93919.03;5029892;28;20224;-68
2023/04/26 03:55:10;;;;;;;8.13;7.38;;;;;;;10.25;66.66;93918.84;5023557;28;20220;-68
2023/04/26 03:57:36;;;;;;;7.82;7.03;;;;;;;10.38;65.52;93934.88;5026562;28;20261;-70
2023/04/26 04:00:10;;;;;;;10.17;7.53;;;;;;;10.35;66.06;93927.34;5034348;28;20220;-69
2023/04/26 04:02:36;;;;;;;9.00;8.10;;;;;;;10.48;66.03;93934.63;5030585;28;20271;-68
2023/04/26 04:05:01;;;;;;;8.25;7.55;;;;;;;10.52;65.44;93928.00;5031496;28;20234;-68
2023/04/26 04:07:27;;;;;;;8.53;7.73;;;;;;;10.53;65.27;93928.81;5036983;28;20646;-70
2023/04/26 04:09:52;;;;;;;8.55;7.75;;;;;;;10.52;65.43;93937.72;5032829;28;20342;-71
2023/04/26 04:12:18;;;;;;;9.13;8.23;;;;;;;10.56;65.46;93939.81;5034963;28;20250;-68
2023/04/26 04:14:43;;;;;;;11.25;10.25;;;;;;;10.59;65.92;93938.66;5032559;28;20260;-67
2023/04/26 04:17:08;;;;;;;12.03;10.83;;;;;;;10.63;66.83;93950.44;5032974;28;20259;-70
2023/04/26 04:19:36;;;;;;;13.68;12.25;;;;;;;10.66;66.72;93946.63;5024119;28;20596;-68
2023/04/26 04:22:01;;;;;;;12.98;11.77;;;;;;;10.70;67.16;93953.19;5029574;28;20210;-70
2023/04/26 04:24:27;;;;;;;12.98;11.88;;;;;;;10.41;68.29;93954.72;5029791;28;20530;-69
2023/04/26 04:26:53;;;;;;;12.83;11.60;;;;;;;10.39;68.53;93951.44;5028413;28;20860;-67
2023/04/26 04:29:18;;;;;;;12.95;11.75;;;;;;;10.38;68.12;93955.88;5029559;28;20218;-68
2023/04/26 04:31:44;;;;;;;12.32;11.15;;;;;;;10.20;68.64;93957.16;5031762;28;20220;-69
2023/04/26 04:34:10;;;;;;;14.13;12.30;;;;;;;10.32;68.83;93961.03;5033723;28;20229;-69
2023/04/26 04:36:37;;;;;;;13.07;11.77;;;;;;;10.41;69.22;93965.22;5029939;28;20721;-67
2023/04/26 04:39:04;;;;;;;15.07;13.60;;;;;;;10.49;68.60;93959.09;5030979;28;20304;-70
2023/04/26 04:41:31;;;;;;;16.90;15.20;;;;;;;10.66;67.93;93963.22;5023298;28;20222;-70
2023/04/26 04:43:56;;;;;;;17.00;15.30;;;;;;;10.65;68.33;93961.59;5029608;28;20218;-70
2023/04/26 04:46:22;;;;;;;18.67;16.85;;;;;;;10.54;68.87;93959.38;5040299;28;20222;-68
2023/04/26 04:48:47;;;;;;;18.13;16.33;;;;;;;10.70;67.92;93945.28;5021837;28;20208;-70
2023/04/26 04:51:12;;;;;;;17.83;16.13;;;;;;;10.75;67.45;93956.09;5020170;28;20190;-71
2023/04/26 04:53:38;;;;;;;18.90;16.92;;;;;;;10.75;67.25;93969.22;5022195;28;20720;-69
2023/04/26 04:56:04;;;;;;;16.20;14.50;;;;;;;10.68;67.15;93963.03;5020572;28;20233;-70
2023/04/26 04:58:29;;;;;;;18.10;16.13;;;;;;;10.68;67.05;93960.41;5024341;28;20245;-70
2023/04/26 05:00:55;;;;;;;16.95;14.40;;;;;;;10.86;66.87;93970.63;5022959;28;20233;-69
2023/04/26 05:03:21;;;;;;;15.43;13.93;;;;;;;10.96;66.60;93958.00;5028018;28;20292;-68
2023/04/26 05:05:46;;;;;;;18.75;14.77;;;;;;;10.94;66.24;93963.44;5029214;28;20275;-69
2023/04/26 05:08:12;;;;;;;19.17;15.05;;;;;;;10.95;66.34;93948.47;5026357;28;20216;-71
2023/04/26 05:10:37;;;;;;;17.55;14.88;;;;;;;11.06;66.14;93960.38;5021382;28;20217;-71
2023/04/26 05:13:04;;;;;;;18.07;14.47;;;;;;;11.10;65.98;93959.03;5031971;28;20630;-70
2023/04/26 05:15:30;;;;;;;14.88;13.35;;;;;;;11.09;66.09;93952.94;5034588;28;20206;-71
2023/04/26 05:17:55;;;;;;;20.73;15.15;;;;;;;11.22;65.81;93958.38;5032721;28;20248;-71
2023/04/26 05:20:21;;;;;;;12.97;11.77;;;;;;;10.97;66.11;93955.19;5021529;28;20268;-67
2023/04/26 05:22:46;;;;;;;12.83;11.27;;;;;;;10.98;66.81;93956.81;5028181;28;20246;-64
2023/04/26 05:25:12;;;;;;;12.85;11.18;;;;;;;11.17;66.11;93965.19;5027904;28;20235;-65
2023/04/26 05:27:38;;;;;;;12.40;10.75;;;;;;;11.30;65.32;93967.19;5020021;28;20816;-65
2023/04/26 05:30:05;;;;;;;11.63;10.45;;;;;;;11.34;64.97;93966.66;5027113;28;20197;-66
2023/04/26 05:32:31;;;;;;;12.60;11.02;;;;;;;11.44;64.78;93976.88;5029024;28;20221;-62
2023/04/26 05:34:56;;;;;;;11.43;10.05;;;;;;;11.59;64.43;93976.88;5015492;28;20218;-64
2023/04/26 05:37:22;;;;;;;10.32;9.32;;;;;;;11.56;63.85;93974.63;5032491;28;20229;-66
2023/04/26 05:39:48;;;;;;;10.48;9.38;;;;;;;11.74;63.26;93977.69;5032581;28;20312;-64
2023/04/26 05:42:13;;;;;;;11.00;9.40;;;;;;;11.81;63.29;93981.19;5040867;28;20204;-67
2023/04/26 05:44:39;;;;;;;9.50;8.15;;;;;;;11.91;62.73;93980.94;5032352;28;20249;-66
2023/04/26 05:47:05;;;;;;;9.32;8.15;;;;;;;11.97;62.53;93984.66;5027559;28;20221;-66
2023/04/26 05:49:30;;;;;;;9.10;8.20;;;;;;;12.04;62.38;93978.47;5034916;28;20256;-70
2023/04/26 05:51:59;;;;;;;9.65;7.25;;;;;;;12.02;61.93;93975.19;5037899;28;20186;-67
2023/04/26 05:54:24;;;;;;;8.05;7.25;;;;;;;11.81;62.97;93977.75;5023999;28;20253;-70
2023/04/26 05:56:50;;;;;;;8.63;6.72;;;;;;;11.88;62.33;93976.88;5033340;28;20244;-66
2023/04/26 05:59:16;;;;;;;10.15;6.38;;;;;;;11.97;62.10;93987.28;5026734;28;20222;-65
2023/04/26 06:01:41;;;;;;;7.00;6.30;;;;;;;12.12;61.05;93985.44;5032360;28;20234;-62
2023/04/26 06:04:06;;;;;;;7.60;5.80;;;;;;;12.16;60.01;93984.06;5030610;28;20226;-68
2023/04/26 06:06:32;;;;;;;6.30;5.68;;;;;;;12.19;60.22;93986.34;5030209;28;20684;-68
2023/04/26 06:08:57;;;;;;;7.23;6.27;;;;;;;12.14;60.36;93978.97;5033798;28;20214;-69
2023/04/26 06:11:23;;;;;;;6.20;5.70;;;;;;;12.31;60.12;93979.56;5035095;28;20964;-69
2023/04/26 06:13:48;;;;;;;7.35;5.60;;;;;;;12.34;59.82;93983.63;5043569;28;20709;-68
2023/04/26 06:16:14;;;;;;;7.80;6.18;;;;;;;12.39;59.35;93981.25;5043811;28;20229;-67
2023/04/26 06:18:39;;;;;;;8.15;5.60;;;;;;;12.65;59.13;93974.59;5044058;28;20278;-63
2023/04/26 06:21:05;;;;;;;5.93;5.30;;;;;;;12.77;58.99;93976.50;5033313;28;20552;-64
2023/04/26 06:23:30;;;;;;;6.15;5.55;;;;;;;12.83;58.40;93974.97;5032532;28;20229;-67
2023/04/26 06:25:56;;;;;;;7.18;5.55;;;;;;;12.88;58.71;93985.72;5027270;28;20226;-62
2023/04/26 06:28:22;;;;;;;6.30;5.47;;;;;;;12.78;58.64;93978.16;5046305;28;20229;-61
2023/04/26 06:30:47;;;;;;;7.35;6.65;;;;;;;12.88;60.43;93974.38;5029571;28;20189;-62
2023/04/26 06:33:12;;;;;;;6.35;5.75;;;;;;;12.79;60.29;93977.16;5035634;28;20189;-66
2023/04/26 06:35:39;;;;;;;7.57;6.30;;;;;;;12.85;59.55;93974.75;5030912;28;20308;-62
2023/04/26 06:38:05;;;;;;;7.05;6.35;;;;;;;12.80;58.72;93973.53;5043760;28;20327;-67
2023/04/26 06:40:31;;;;;;;6.65;6.05;;;;;;;12.92;57.28;93979.06;5036290;28;20748;-67
2023/04/26 06:42:56;;;;;;;7.13;5.18;;;;;;;12.86;55.60;93966.66;5033418;28;20185;-63
2023/04/26 06:45:22;;;;;;;6.05;5.35;;;;;;;12.66;56.65;93982.31;5038773;28;20237;-69
2023/04/26 06:47:51;;;;;;;5.13;4.70;;;;;;;12.60;55.05;93984.91;5030627;28;20221;-64
2023/04/26 06:50:16;;;;;;;5.70;5.18;;;;;;;12.62;53.04;93991.63;5034274;28;22296;-67
2023/04/26 06:52:42;;;;;;;5.38;4.88;;;;;;;12.85;52.20;93986.13;5032136;28;20264;-66
2023/04/26 06:55:07;;;;;;;7.90;4.97;;;;;;;12.44;52.54;93994.69;5031635;28;21039;-67
2023/04/26 06:57:33;;;;;;;5.80;5.30;;;;;;;12.39;53.19;93996.25;5038937;28;20181;-66
2023/04/26 06:59:58;;;;;;;5.32;4.93;;;;;;;12.50;51.27;93990.47;5022466;28;20561;-68
2023/04/26 07:02:24;;;;;;;5.20;4.72;;;;;;;12.44;50.64;93994.69;5032663;28;20257;-64
2023/04/26 07:04:50;;;;;;;5.50;4.78;;;;;;;12.49;51.15;93997.59;5037424;28;20213;-63
2023/04/26 07:07:15;;;;;;;4.82;4.50;;;;;;;12.49;51.94;93996.78;5030871;28;20218;-62
2023/04/26 07:09:41;;;;;;;5.10;4.70;;;;;;;12.59;51.76;93989.38;5030320;28;20554;-68
2023/04/26 07:12:09;;;;;;;4.90;4.50;;;;;;;12.51;51.76;93997.38;5022888;28;20182;-66
2023/04/26 07:14:37;;;;;;;5.32;4.88;;;;;;;12.34;51.86;94000.25;5026391;28;20211;-66
2023/04/26 07:17:02;;;;;;;5.07;4.68;;;;;;;12.05;52.89;93985.34;5033378;28;20783;-65
2023/04/26 07:19:28;;;;;;;5.80;5.25;;;;;;;12.38;52.17;93999.91;5027688;28;20224;-67
2023/04/26 07:21:53;;;;;;;5.38;4.85;;;;;;;12.47;52.00;94001.41;5037545;28;20273;-67
2023/04/26 07:24:19;;;;;;;5.60;5.00;;;;;;;12.74;51.90;93998.00;5037901;28;20192;-67
2023/04/26 07:26:44;;;;;;;6.05;4.63;;;;;;;12.87;51.63;93996.50;5029288;28;20220;-62
2023/04/26 07:29:10;;;;;;;5.70;5.07;;;;;;;13.03;50.37;93990.94;5026773;28;20253;-62
2023/04/26 07:31:35;;;;;;;5.60;5.10;;;;;;;13.25;49.53;93995.13;5042739;28;20214;-61
2023/04/26 07:34:01;;;;;;;8.18;5.57;;;;;;;13.43;49.97;93996.50;5029540;28;20217;-64
2023/04/26 07:36:26;;;;;;;5.22;4.63;;;;;;;13.58;49.76;93996.38;5021914;28;20177;-64
2023/04/26 07:38:52;;;;;;;7.20;4.53;;;;;;;13.50;49.12;93992.09;5035499;28;20225;-65
2023/04/26 07:41:17;;;;;;;4.93;4.10;;;;;;;13.60;47.88;93999.66;5023641;28;20276;-66
2023/04/26 07:43:43;;;;;;;4.20;3.80;;;;;;;13.51;46.22;94006.91;5031468;28;20217;-62
2023/04/26 07:46:08;;;;;;;4.10;3.80;;;;;;;13.61;45.77;94001.28;5027615;28;20226;-62
2023/04/26 07:48:34;;;;;;;6.88;4.68;;;;;;;13.44;46.87;94006.91;5029052;28;20192;-64
2023/04/26 07:51:12;;;;;;;3.65;3.05;;;;;;;13.26;46.66;94014.50;5028475;28;20286;-67
2023/04/26 07:53:39;;;;;;;4.35;3.92;;;;;;;13.24;47.64;94005.91;5028961;28;21092;-63
2023/04/26 07:56:06;;;;;;;3.97;3.58;;;;;;;13.39;46.18;94019.03;5030895;28;20253;-62
2023/04/26 07:58:32;;;;;;;5.32;3.85;;;;;;;13.19;46.01;94008.31;5031087;28;20664;-65
2023/04/26 08:00:59;;;;;;;4.18;3.63;;;;;;;13.03;46.35;94022.59;5023947;28;20245;-70
2023/04/26 08:03:26;;;;;;;4.53;3.70;;;;;;;13.20;45.47;94023.97;5029757;28;20278;-68
2023/04/26 08:05:52;;;;;;;3.92;3.60;;;;;;;13.09;45.08;94013.09;5027215;28;20229;-64
2023/04/26 08:08:18;;;;;;;4.93;4.30;;;;;;;13.03;46.69;94025.25;5026316;28;20230;-71
2023/04/26 08:10:44;;;;;;;4.85;4.45;;;;;;;13.34;46.06;94016.97;5026476;28;20237;-71
2023/04/26 08:13:10;;;;;;;4.43;4.00;;;;;;;13.26;46.20;94009.22;5022768;28;20338;-66
2023/04/26 08:15:36;;;;;;;4.93;4.43;;;;;;;13.42;46.64;94022.09;5023730;28;20202;-65
2023/04/26 08:18:01;;;;;;;4.97;4.47;;;;;;;13.68;46.00;94029.38;5027509;28;20230;-66
2023/04/26 08:20:27;;;;;;;4.18;3.55;;;;;;;13.80;45.53;94011.13;5021577;28;20239;-63
2023/04/26 08:22:56;;;;;;;4.30;3.90;;;;;;;13.77;45.20;94010.72;5029767;28;20340;-65
2023/04/26 08:25:22;;;;;;;4.45;4.15;;;;;;;13.88;45.82;94026.03;5030465;28;20222;-67
2023/04/26 08:27:48;;;;;;;5.10;4.60;;;;;;;14.03;44.98;94012.66;5019591;28;20190;-69
2023/04/26 08:30:13;;;;;;;5.85;4.45;;;;;;;14.07;44.46;94022.63;5030773;28;20182;-66
2023/04/26 08:32:39;;;;;;;4.57;4.18;;;;;;;14.07;44.25;94014.72;5030285;28;20284;-65
2023/04/26 08:35:05;;;;;;;5.03;4.63;;;;;;;14.15;44.30;94012.91;5025214;28;20248;-68
2023/04/26 08:37:30;;;;;;;4.30;3.90;;;;;;;13.86;45.42;94018.28;5012797;28;20221;-63
2023/04/26 08:39:56;;;;;;;4.72;3.75;;;;;;;13.79;45.80;94011.31;5040823;28;20236;-65
2023/04/26 08:42:25;;;;;;;4.15;3.75;;;;;;;13.71;45.13;94032.63;5029282;28;20185;-68
2023/04/26 08:44:52;;;;;;;4.18;3.75;;;;;;;13.65;45.63;94018.38;5025198;28;20214;-67
2023/04/26 08:47:21;;;;;;;4.60;4.20;;;;;;;13.82;45.08;94024.97;5028051;28;20526;-66
2023/04/26 08:49:58;;;;;;;5.00;4.18;;;;;;;13.92;44.80;94016.66;5022456;28;20230;-67
2023/04/26 08:52:26;;;;;;;4.57;3.78;;;;;;;14.07;44.51;94017.34;5026035;28;20228;-68
2023/04/26 08:54:53;;;;;;;4.03;3.63;;;;;;;14.25;43.67;94008.06;5030988;28;20252;-65
2023/04/26 08:57:23;;;;;;;3.55;3.25;;;;;;;14.27;43.56;94016.59;5036110;28;20204;-63
2023/04/26 08:59:50;;;;;;;3.42;3.13;;;;;;;13.85;44.63;94019.28;5029228;28;20233;-66
2023/04/26 09:02:24;;;;;;;4.10;3.28;;;;;;;14.06;44.09;94025.47;5031356;28;20313;-68
2023/04/26 09:04:50;;;;;;;3.30;2.70;;;;;;;14.19;43.15;94030.00;5031623;28;20225;-65
2023/04/26 09:07:30;;;;;;;3.30;3.00;;;;;;;14.19;43.24;94030.00;5030966;28;20228;-67
2023/04/26 09:09:58;;;;;;;3.33;3.03;;;;;;;14.23;43.01;94037.34;5030622;28;20193;-68
2023/04/26 09:12:24;;;;;;;3.05;2.75;;;;;;;14.19;43.24;94030.81;5022925;28;20181;-63
2023/04/26 09:14:49;;;;;;;3.65;2.88;;;;;;;14.27;42.39;94024.53;5031814;28;20225;-66
2023/04/26 09:17:29;;;;;;;3.63;2.70;;;;;;;14.11;42.65;94023.88;5011277;28;20239;-66
2023/04/26 09:19:55;;;;;;;2.90;2.70;;;;;;;14.20;43.24;94027.16;5024954;28;20275;-67
2023/04/26 09:22:33;;;;;;;3.80;3.40;;;;;;;14.50;42.38;94022.38;5021139;28;20217;-68
2023/04/26 09:25:00;;;;;;;4.78;3.15;;;;;;;14.53;42.20;94031.75;5022410;28;20275;-66
2023/04/26 09:27:38;;;;;;;3.45;3.15;;;;;;;14.60;43.14;94037.09;5040290;28;20181;-68
2023/04/26 09:30:06;;;;;;;3.20;2.80;;;;;;;14.45;43.47;94030.06;5023667;28;20245;-67
2023/04/26 09:32:46;;;;;;;3.15;2.90;;;;;;;14.84;42.84;94033.06;5004411;28;20225;-69
2023/04/26 09:35:25;;;;;;;4.82;2.80;;;;;;;14.81;42.67;94039.56;5021501;28;20640;-69
2023/04/26 09:38:11;;;;;;;3.33;2.30;;;;;;;15.00;41.90;94041.41;5016746;28;20284;-64
2023/04/26 09:40:36;;;;;;;2.40;2.20;;;;;;;14.99;41.55;94036.31;5031672;28;20225;-69
2023/04/26 09:43:06;;;;;;;3.03;2.67;;;;;;;15.03;40.76;94042.84;5037158;28;20283;-66
2023/04/26 09:45:41;;;;;;;3.08;2.63;;;;;;;14.94;41.44;94031.63;5024158;28;20209;-69
2023/04/26 09:48:30;;;;;;;2.90;2.70;;;;;;;15.00;41.77;94030.00;5026181;28;20222;-64
2023/04/26 09:50:57;;;;;;;2.75;2.38;;;;;;;15.25;40.82;94019.63;5028731;28;20715;-71
2023/04/26 09:53:45;;;;;;;3.10;2.90;;;;;;;15.21;41.27;94018.41;5027965;28;20217;-68
2023/04/26 09:56:20;;;;;;;3.40;2.65;;;;;;;15.38;41.22;94016.94;5020016;28;20218;-66
2023/04/26 09:58:46;;;;;;;2.38;2.17;;;;;;;15.39;40.38;94023.88;5020272;28;20228;-69
2023/04/26 10:01:13;;;;;;;2.47;2.28;;;;;;;15.50;40.32;94018.97;5022524;28;20701;-70
2023/04/26 10:03:41;;;;;;;2.70;2.50;;;;;;;15.42;40.40;94015.53;5020389;28;20701;-68
2023/04/26 10:06:07;;;;;;;2.47;2.28;;;;;;;15.50;39.67;94018.97;5027427;28;20561;-64
2023/04/26 10:08:33;;;;;;;2.45;2.10;;;;;;;15.67;39.17;94012.22;5021448;28;20221;-66
2023/04/26 10:11:01;;;;;;;2.03;1.83;;;;;;;15.88;37.95;94008.53;5029741;28;20305;-66
2023/04/26 10:13:27;;;;;;;2.95;2.00;;;;;;;15.85;37.82;94006.28;5032680;28;20217;-66
2023/04/26 10:15:53;;;;;;;2.50;2.28;;;;;;;15.72;40.00;94011.63;5026662;28;20654;-69
2023/04/26 10:18:19;;;;;;;3.40;2.00;;;;;;;15.94;37.91;94007.69;5035565;28;20186;-64
2023/04/26 10:20:50;;;;;;;2.10;1.90;;;;;;;15.76;38.03;94008.34;5027741;28;20224;-69
2023/04/26 10:23:24;;;;;;;2.35;2.15;;;;;;;15.84;38.09;94002.00;5031429;28;20218;-69
2023/04/26 10:25:51;;;;;;;4.18;1.90;;;;;;;15.80;39.02;94006.13;5032256;28;20269;-67
2023/04/26 10:28:47;;;;;;;4.13;1.80;;;;;;;15.83;38.17;94000.38;5022854;28;20692;-65
2023/04/26 10:31:12;;;;;;;1.88;1.73;;;;;;;15.84;38.16;94016.06;5028593;28;20213;-62
2023/04/26 10:33:38;;;;;;;1.80;1.70;;;;;;;16.04;37.22;94000.09;5029261;28;20206;-69
2023/04/26 10:36:03;;;;;;;3.00;1.60;;;;;;;16.07;35.79;94010.28;5032421;28;20280;-66
2023/04/26 10:38:29;;;;;;;1.95;1.67;;;;;;;15.85;36.21;94006.28;5035738;28;20254;-66
2023/04/26 10:41:15;;;;;;;2.25;1.65;;;;;;;15.79;36.56;93997.31;5025846;28;20225;-62
2023/04/26 10:43:41;;;;;;;1.77;1.63;;;;;;;16.14;35.98;93996.19;5041605;28;20297;-63
2023/04/26 10:46:33;;;;;;;1.60;1.50;;;;;;;16.07;35.86;94004.19;5036315;28;20233;-66
2023/04/26 10:49:11;;;;;;;2.80;2.05;;;;;;;16.05;35.22;94014.97;5041138;28;20240;-64
2023/04/26 10:51:37;;;;;;;2.55;1.70;;;;;;;16.01;35.69;93994.38;5025841;28;20178;-63
2023/04/26 10:54:03;;;;;;;2.78;1.60;;;;;;;16.00;35.95;93987.47;5031354;28;20282;-68
2023/04/26 10:56:31;;;;;;;1.90;1.70;;;;;;;16.31;35.12;93992.84;5045363;28;20228;-65
2023/04/26 10:59:10;;;;;;;2.45;1.55;;;;;;;16.40;35.29;94001.38;5032532;28;20332;-67
2023/04/26 11:01:37;;;;;;;2.40;1.40;;;;;;;16.33;34.04;94000.56;5029969;28;20225;-66
2023/04/26 11:04:10;;;;;;;3.05;1.27;;;;;;;16.17;34.72;94009.03;5043881;28;20226;-68
2023/04/26 11:06:56;;;;;;;1.65;1.55;;;;;;;16.23;34.83;93994.94;5040261;28;20237;-70
2023/04/26 11:09:47;;;;;;;1.40;1.30;;;;;;;16.28;34.54;93992.47;5025808;28;20504;-72
2023/04/26 11:12:15;;;;;;;4.75;1.60;;;;;;;16.45;34.27;94011.34;5027330;28;20260;-66
2023/04/26 11:14:41;;;;;;;1.48;1.38;;;;;;;16.47;33.76;93991.53;5030757;28;20209;-66
2023/04/26 11:17:10;;;;;;;2.10;1.65;;;;;;;16.46;33.34;93989.09;5027010;28;20305;-65
2023/04/26 11:19:36;;;;;;;2.33;1.60;;;;;;;16.39;33.69;93999.75;5023076;28;20251;-65
2023/04/26 11:22:05;;;;;;;2.97;1.50;;;;;;;16.32;33.83;93991.00;5030171;28;20237;-65
2023/04/26 11:24:32;;;;;;;1.30;1.20;;;;;;;16.13;35.17;93990.06;5027671;28;20186;-67
2023/04/26 11:26:58;;;;;;;1.67;1.58;;;;;;;16.39;33.88;93989.13;5034085;28;20276;-66